Time;durP1;ratioP1;P1;durP2;ratioP2;P2;SDS_P1;SDS_P2;PMS_P1;PMS_P2;Temp;Humidity;BMP_temperature;BMP_pressure;BME280_temperature;BME280_humidity;BME280_pressure;Samples;Min_cycle;Max_cycle;Signal;HPM_P1;HPM_P2
2023/03/04 00:00:19;;;;;;;;;;;;;;;-142.75;100.00;78803.16;4933545;29;19995;-66
2023/03/04 00:02:44;;;;;;;;;;;;;;;-142.75;100.00;78814.97;4942631;29;19922;-66
2023/03/04 00:05:10;;;;;;;;;;;;;;;-142.75;100.00;78846.50;4936694;29;19921;-66
2023/03/04 00:07:35;;;;;;;;;;;;;;;-142.75;100.00;78844.53;4953687;28;19921;-66
2023/03/04 00:10:00;;;;;;;;;;;;;;;-142.75;100.00;78838.63;4949757;29;19915;-66
2023/03/04 00:12:25;;;;;;;;;;;;;;;-142.75;100.00;78836.66;4939320;29;19956;-67
2023/03/04 00:14:50;;;;;;;;;;;;;;;-142.75;100.00;78830.75;4936739;29;19960;-66
2023/03/04 00:17:16;;;;;;;;;;;;;;;-142.75;100.00;78840.59;4947267;28;19994;-66
2023/03/04 00:19:41;;;;;;;;;;;;;;;-142.75;100.00;78840.59;4950366;29;20004;-66
2023/03/04 00:22:06;;;;;;;;;;;;;;;-142.75;100.00;78850.44;4953288;29;20480;-66
2023/03/04 00:24:31;;;;;;;;;;;;;;;-142.75;100.00;78854.38;4953377;29;19914;-65
2023/03/04 00:26:57;;;;;;;;;;;;;;;-142.75;100.00;78854.38;4932862;29;19914;-64
2023/03/04 00:29:22;;;;;;;;;;;;;;;-142.75;100.00;78842.56;4948304;29;20399;-66
2023/03/04 00:31:47;;;;;;;;;;;;;;;-142.75;100.00;78836.66;4945363;29;19923;-66
2023/03/04 00:34:12;;;;;;;;;;;;;;;-142.75;100.00;78842.56;4934248;29;19918;-66
2023/03/04 00:36:37;;;;;;;;;;;;;;;-142.75;100.00;78836.66;4934306;29;19914;-64
2023/03/04 00:39:03;;;;;;;;;;;;;;;-142.75;100.00;78842.56;4933896;29;19925;-66
2023/03/04 00:41:28;;;;;;;;;;;;;;;-142.75;100.00;78840.59;4946835;29;19918;-66
2023/03/04 00:43:53;;;;;;;;;;;;;;;-142.75;100.00;78840.59;4936033;29;19938;-66
2023/03/04 00:46:18;;;;;;;;;;;;;;;-142.75;100.00;78832.72;4935889;29;19918;-66
2023/03/04 00:48:44;;;;;;;;;;;;;;;-142.75;100.00;78846.50;4953030;28;19914;-66
2023/03/04 00:51:09;;;;;;;;;;;;;;;-142.75;100.00;78854.38;4935756;29;19914;-66
2023/03/04 00:53:34;;;;;;;;;;;;;;;-142.75;100.00;78858.31;4953151;29;19914;-66
2023/03/04 00:55:59;;;;;;;;;;;;;;;-142.75;100.00;78838.63;4935856;29;20001;-66
2023/03/04 00:58:24;;;;;;;;;;;;;;;-142.75;100.00;78848.47;4952900;28;19922;-66
2023/03/04 01:00:50;;;;;;;;;;;;;;;-142.75;100.00;78850.44;4952760;29;19930;-66
2023/03/04 01:03:15;;;;;;;;;;;;;;;-142.75;100.00;78850.44;4933929;29;19925;-66
2023/03/04 01:05:40;;;;;;;;;;;;;;;-142.75;100.00;78834.69;4933793;29;20001;-65
2023/03/04 01:08:05;;;;;;;;;;;;;;;-142.75;100.00;78848.47;4948589;28;19922;-66
2023/03/04 01:10:31;;;;;;;;;;;;;;;-142.75;100.00;78846.50;4952678;29;20372;-66
2023/03/04 01:12:56;;;;;;;;;;;;;;;-142.75;100.00;78852.41;4952951;29;20009;-66
2023/03/04 01:15:21;;;;;;;;;;;;;;;-142.75;100.00;78846.50;4934838;29;19954;-66
2023/03/04 01:17:46;;;;;;;;;;;;;;;-142.75;100.00;78850.44;4929127;29;20388;-66
2023/03/04 01:20:12;;;;;;;;;;;;;;;-142.75;100.00;78860.28;4933115;29;19921;-63
2023/03/04 01:22:37;;;;;;;;;;;;;;;-142.75;100.00;78893.78;4933489;29;20060;-66
2023/03/04 01:25:02;;;;;;;;;;;;;;;-142.75;100.00;78876.03;4930721;29;19915;-65
2023/03/04 01:27:28;;;;;;;;;;;;;;;-142.75;100.00;78860.28;4933631;29;19921;-65
2023/03/04 01:29:53;;;;;;;;;;;;;;;-142.75;100.00;78840.59;4935285;29;19915;-66
2023/03/04 01:32:18;;;;;;;;;;;;;;;-142.75;100.00;78840.59;4936259;29;19919;-66
2023/03/04 01:34:43;;;;;;;;;;;;;;;-142.75;100.00;78834.69;4936393;29;19970;-66
2023/03/04 01:37:08;;;;;;;;;;;;;;;-142.75;100.00;78832.72;4936300;29;19925;-65
2023/03/04 01:39:34;;;;;;;;;;;;;;;-142.75;100.00;78834.69;4937581;29;19942;-65
2023/03/04 01:41:59;;;;;;;;;;;;;;;-142.75;100.00;78830.75;4944945;29;19918;-66
2023/03/04 01:44:25;;;;;;;;;;;;;;;-142.75;100.00;78824.84;4936533;29;20372;-66
2023/03/04 01:46:51;;;;;;;;;;;;;;;-142.75;100.00;78813.00;4949172;29;19922;-66
2023/03/04 01:49:17;;;;;;;;;;;;;;;-142.75;100.00;78811.03;4955821;28;20352;-65
2023/03/04 01:51:43;;;;;;;;;;;;;;;-142.75;100.00;78814.97;4941140;29;19915;-66
2023/03/04 01:54:08;;;;;;;;;;;;;;;-142.75;100.00;78807.09;4953802;29;19914;-66
2023/03/04 01:56:35;;;;;;;;;;;;;;;-142.75;100.00;78789.38;4951579;29;19922;-66
2023/03/04 01:59:08;;;;;;;;;;;;;;;-142.75;100.00;78813.00;4936905;29;19919;-66
2023/03/04 02:01:34;;;;;;;;;;;;;;;-142.75;100.00;78799.22;4936932;29;19938;-66
2023/03/04 02:03:59;;;;;;;;;;;;;;;-142.75;100.00;78807.09;4955873;29;19960;-66
2023/03/04 02:06:25;;;;;;;;;;;;;;;-142.75;100.00;78814.97;4956171;29;20073;-66
2023/03/04 02:08:50;;;;;;;;;;;;;;;-142.75;100.00;78826.81;4950407;28;19915;-65
2023/03/04 02:11:15;;;;;;;;;;;;;;;-142.75;100.00;78832.72;4938566;29;19922;-66
2023/03/04 02:13:41;;;;;;;;;;;;;;;-142.75;100.00;78826.81;4945550;29;19981;-65
2023/03/04 02:16:06;;;;;;;;;;;;;;;-142.75;100.00;78820.88;4935461;29;20013;-66
2023/03/04 02:18:31;;;;;;;;;;;;;;;-142.75;100.00;78814.97;4936390;29;19926;-66
2023/03/04 02:20:57;;;;;;;;;;;;;;;-142.75;100.00;78818.91;4935381;29;19997;-66
2023/03/04 02:23:28;;;;;;;;;;;;;;;-142.75;100.00;78822.88;4936676;29;19921;-66
2023/03/04 02:26:13;;;;;;;;;;;;;;;-142.75;100.00;78826.81;4953069;29;19914;-66
2023/03/04 02:28:39;;;;;;;;;;;;;;;-142.75;100.00;78824.84;4938249;29;19965;-66
2023/03/04 02:31:04;;;;;;;;;;;;;;;-142.75;100.00;78820.88;4955455;29;19972;-66
2023/03/04 02:33:29;;;;;;;;;;;;;;;-142.75;100.00;78814.97;4938414;29;19922;-66
2023/03/04 02:35:54;;;;;;;;;;;;;;;-142.75;100.00;78842.56;4955428;29;19914;-66
2023/03/04 02:38:20;;;;;;;;;;;;;;;-142.75;100.00;78838.63;4954920;28;19941;-66
2023/03/04 02:40:47;;;;;;;;;;;;;;;-142.75;100.00;78860.28;4955075;29;19978;-65
2023/03/04 02:43:13;;;;;;;;;;;;;;;-142.75;100.00;78844.53;4955175;29;19921;-65
2023/03/04 02:45:40;;;;;;;;;;;;;;;-142.75;100.00;78832.72;4955389;29;19914;-66
2023/03/04 02:48:05;;;;;;;;;;;;;;;-142.75;100.00;78828.78;4955147;28;19920;-66
2023/03/04 02:50:32;;;;;;;;;;;;;;;-142.75;100.00;78842.56;4954981;29;20370;-66
2023/03/04 02:52:58;;;;;;;;;;;;;;;-142.75;100.00;78846.50;4938105;29;19914;-65
2023/03/04 02:55:23;;;;;;;;;;;;;;;-142.75;100.00;78854.38;4955065;29;19969;-66
2023/03/04 02:57:48;;;;;;;;;;;;;;;-142.75;100.00;78848.47;4954805;28;19918;-66
2023/03/04 03:00:13;;;;;;;;;;;;;;;-142.75;100.00;78838.63;4954808;29;19921;-63
2023/03/04 03:02:39;;;;;;;;;;;;;;;-142.75;100.00;78838.63;4937875;29;19918;-66
2023/03/04 03:05:04;;;;;;;;;;;;;;;-142.75;100.00;78836.66;4934727;29;19915;-65
2023/03/04 03:07:29;;;;;;;;;;;;;;;-142.75;100.00;78830.75;4935837;29;19915;-65
2023/03/04 03:09:54;;;;;;;;;;;;;;;-142.75;100.00;78834.69;4935769;29;19922;-66
2023/03/04 03:12:20;;;;;;;;;;;;;;;-142.75;100.00;78822.88;4935531;29;19914;-66
2023/03/04 03:14:45;;;;;;;;;;;;;;;-142.75;100.00;78820.88;4935754;29;19914;-66
2023/03/04 03:17:10;;;;;;;;;;;;;;;-142.75;100.00;78811.03;4935453;29;19921;-65
2023/03/04 03:19:35;;;;;;;;;;;;;;;-142.75;100.00;78809.06;4946958;29;19918;-66
2023/03/04 03:22:00;;;;;;;;;;;;;;;-142.75;100.00;78805.13;4954606;29;19922;-66
2023/03/04 03:24:26;;;;;;;;;;;;;;;-142.75;100.00;78814.97;4944919;29;19914;-65
2023/03/04 03:26:51;;;;;;;;;;;;;;;-142.75;100.00;78816.94;4934356;29;19930;-65
2023/03/04 03:29:16;;;;;;;;;;;;;;;-142.75;100.00;78807.09;4952766;29;20319;-66
2023/03/04 03:31:41;;;;;;;;;;;;;;;-142.75;100.00;78805.13;4972766;23;20303;-66
2023/03/04 03:34:06;;;;;;;;;;;;;;;-142.75;100.00;78816.94;4972212;28;19918;-66
2023/03/04 03:36:32;;;;;;;;;;;;;;;-142.75;100.00;78820.88;4973476;28;20053;-66
2023/03/04 03:38:57;;;;;;;;;;;;;;;-142.75;100.00;78828.78;4973535;28;19918;-66
2023/03/04 03:41:22;;;;;;;;;;;;;;;-142.75;100.00;78814.97;4973424;28;20366;-66
2023/03/04 03:43:47;;;;;;;;;;;;;;;-142.75;100.00;78822.88;4973557;28;19921;-66
2023/03/04 03:46:12;;;;;;;;;;;;;;;-142.75;100.00;78816.94;4973539;28;19969;-66
2023/03/04 03:48:38;;;;;;;;;;;;;;;-142.75;100.00;78814.97;4973434;28;19914;-66
2023/03/04 03:51:03;;;;;;;;;;;;;;;-142.75;100.00;78830.75;4955006;28;20351;-66
2023/03/04 03:53:28;;;;;;;;;;;;;;;-142.75;100.00;78818.91;4973468;28;20527;-66
2023/03/04 03:55:53;;;;;;;;;;;;;;;-142.75;100.00;78818.91;4973409;28;19914;-66
2023/03/04 03:58:19;;;;;;;;;;;;;;;-142.75;100.00;78822.88;4972982;28;19961;-66
2023/03/04 04:00:44;;;;;;;;;;;;;;;-142.75;100.00;78824.84;4973047;28;20371;-66
2023/03/04 04:03:12;;;;;;;;;;;;;;;-142.75;100.00;78822.88;4973176;28;19914;-65
2023/03/04 04:05:37;;;;;;;;;;;;;;;-142.75;100.00;78826.81;4973249;28;19921;-66
2023/03/04 04:08:03;;;;;;;;;;;;;;;-142.75;100.00;78816.94;4973064;28;20339;-66
2023/03/04 04:10:28;;;;;;;;;;;;;;;-142.75;100.00;78836.66;4972816;28;19914;-66
2023/03/04 04:12:53;;;;;;;;;;;;;;;-142.75;100.00;78830.75;4973100;28;19914;-65
2023/03/04 04:15:18;;;;;;;;;;;;;;;-142.75;100.00;78826.81;4972995;28;20398;-66
2023/03/04 04:17:44;;;;;;;;;;;;;;;-142.75;100.00;78838.63;4972841;28;19980;-66
2023/03/04 04:20:09;;;;;;;;;;;;;;;-142.75;100.00;78834.69;4972687;28;19921;-66
2023/03/04 04:22:34;;;;;;;;;;;;;;;-142.75;100.00;78836.66;4972824;28;19925;-66
2023/03/04 04:25:00;;;;;;;;;;;;;;;-142.75;100.00;78844.53;4972777;28;19914;-66
2023/03/04 04:27:25;;;;;;;;;;;;;;;-142.75;100.00;78834.69;4972779;28;20331;-66
2023/03/04 04:29:50;;;;;;;;;;;;;;;-142.75;100.00;78836.66;4972446;28;19914;-66
2023/03/04 04:32:15;;;;;;;;;;;;;;;-142.75;100.00;78834.69;4972657;28;20005;-66
2023/03/04 04:34:41;;;;;;;;;;;;;;;-142.75;100.00;78842.56;4972754;28;19925;-66
2023/03/04 04:37:06;;;;;;;;;;;;;;;-142.75;100.00;78834.69;4972433;28;19921;-66
2023/03/04 04:39:31;;;;;;;;;;;;;;;-142.75;100.00;78846.50;4972485;28;20343;-66
2023/03/04 04:41:56;;;;;;;;;;;;;;;-142.75;100.00;78836.66;4972296;28;19977;-66
2023/03/04 04:44:22;;;;;;;;;;;;;;;-142.75;100.00;78826.81;4972551;28;19914;-66
2023/03/04 04:46:47;;;;;;;;;;;;;;;-142.75;100.00;78836.66;4965489;28;20390;-66
2023/03/04 04:49:12;;;;;;;;;;;;;;;-142.75;100.00;78826.81;4969723;28;20009;-66
2023/03/04 04:51:38;;;;;;;;;;;;;;;-142.75;100.00;78842.56;4970612;28;20395;-66
2023/03/04 04:54:04;;;;;;;;;;;;;;;-142.75;100.00;78842.56;4970881;28;19921;-66
2023/03/04 04:56:29;;;;;;;;;;;;;;;-142.75;100.00;78828.78;4970549;28;19949;-66
2023/03/04 04:58:59;;;;;;;;;;;;;;;-142.75;100.00;78868.16;4969111;28;19929;-66
2023/03/04 05:01:24;;;;;;;;;;;;;;;-142.75;100.00;78870.13;4970138;28;19933;-66
2023/03/04 05:03:52;;;;;;;;;;;;;;;-142.75;100.00;78852.41;4970675;28;19921;-66
2023/03/04 05:06:18;;;;;;;;;;;;;;;-142.75;100.00;78876.03;4970503;28;19969;-66
2023/03/04 05:08:43;;;;;;;;;;;;;;;-142.75;100.00;78872.09;4972065;28;19914;-66
2023/03/04 05:11:08;;;;;;;;;;;;;;;-142.75;100.00;78870.13;4971225;28;20299;-66
2023/03/04 05:13:34;;;;;;;;;;;;;;;-142.75;100.00;78842.56;4971966;28;19914;-66
2023/03/04 05:15:59;;;;;;;;;;;;;;;-142.75;100.00;78838.63;4971752;28;20391;-66
2023/03/04 05:18:25;;;;;;;;;;;;;;;-142.75;100.00;78858.31;4971844;28;20005;-66
2023/03/04 05:20:51;;;;;;;;;;;;;;;-142.75;100.00;78850.44;4971693;28;20024;-66
2023/03/04 05:23:16;;;;;;;;;;;;;;;-142.75;100.00;78840.59;4970330;28;19918;-66
2023/03/04 05:25:41;;;;;;;;;;;;;;;-142.75;100.00;78830.75;4970310;28;19985;-66
2023/03/04 05:28:11;;;;;;;;;;;;;;;-142.75;100.00;78830.75;4971324;28;19921;-66
2023/03/04 05:30:36;;;;;;;;;;;;;;;-142.75;100.00;78854.38;4971628;28;19964;-66
2023/03/04 05:33:01;;;;;;;;;;;;;;;-142.75;100.00;78834.69;4972059;28;19918;-66
2023/03/04 05:35:27;;;;;;;;;;;;;;;-142.75;100.00;78828.78;4972089;28;19980;-66
2023/03/04 05:37:52;;;;;;;;;;;;;;;-142.75;100.00;78846.50;4971819;28;20394;-66
2023/03/04 05:40:17;;;;;;;;;;;;;;;-142.75;100.00;78850.44;4971704;28;20330;-66
2023/03/04 05:42:42;;;;;;;;;;;;;;;-142.75;100.00;78826.81;4972000;28;19914;-66
2023/03/04 05:45:08;;;;;;;;;;;;;;;-142.75;100.00;78840.59;4971946;28;19992;-66
2023/03/04 05:47:33;;;;;;;;;;;;;;;-142.75;100.00;78834.69;4971808;28;20047;-66
2023/03/04 05:49:58;;;;;;;;;;;;;;;-142.75;100.00;78838.63;4971737;28;20052;-66
2023/03/04 05:52:23;;;;;;;;;;;;;;;-142.75;100.00;78838.63;4971858;28;20397;-66
2023/03/04 05:54:49;;;;;;;;;;;;;;;-142.75;100.00;78834.69;4971810;28;19913;-65
2023/03/04 05:57:14;;;;;;;;;;;;;;;-142.75;100.00;78822.88;4971867;28;19925;-66
2023/03/04 05:59:39;;;;;;;;;;;;;;;-142.75;100.00;78811.03;4971654;28;20012;-66
2023/03/04 06:02:04;;;;;;;;;;;;;;;-142.75;100.00;78818.91;4971639;28;19972;-67
2023/03/04 06:04:29;;;;;;;;;;;;;;;-142.75;100.00;78803.16;4971823;28;19960;-66
2023/03/04 06:06:55;;;;;;;;;;;;;;;-142.75;100.00;78807.09;4971785;28;19914;-66
2023/03/04 06:09:20;;;;;;;;;;;;;;;-142.75;100.00;78799.22;4971641;28;20375;-66
2023/03/04 06:11:45;;;;;;;;;;;;;;;-142.75;100.00;78809.06;4971517;28;19929;-66
2023/03/04 06:14:10;;;;;;;;;;;;;;;-142.75;100.00;78801.19;4972954;28;19914;-66
2023/03/04 06:16:36;;;;;;;;;;;;;;;-142.75;100.00;78803.16;4975196;28;19922;-65
2023/03/04 06:19:01;;;;;;;;;;;;;;;-142.75;100.00;78787.41;4974991;28;19918;-66
2023/03/04 06:21:26;;;;;;;;;;;;;;;-142.75;100.00;78793.31;4975000;28;19969;-66
2023/03/04 06:23:52;;;;;;;;;;;;;;;-142.75;100.00;78793.31;4974821;28;20337;-66
2023/03/04 06:26:17;;;;;;;;;;;;;;;-142.75;100.00;78787.41;4975156;28;19914;-66
2023/03/04 06:28:42;;;;;;;;;;;;;;;-142.75;100.00;78785.44;4974413;28;20264;-66
2023/03/04 06:31:08;;;;;;;;;;;;;;;-142.75;100.00;78783.47;4974543;28;19936;-67
2023/03/04 06:33:33;;;;;;;;;;;;;;;-142.75;100.00;78783.47;4975156;28;19957;-66
2023/03/04 06:35:58;;;;;;;;;;;;;;;-142.75;100.00;78789.38;4975045;28;19921;-66
2023/03/04 06:38:24;;;;;;;;;;;;;;;-142.75;100.00;78781.50;4974971;28;19924;-66
2023/03/04 06:40:50;;;;;;;;;;;;;;;-142.75;100.00;78797.25;4974661;28;19921;-66
2023/03/04 06:43:15;;;;;;;;;;;;;;;-142.75;100.00;78795.28;4973812;28;19914;-66
2023/03/04 06:45:40;;;;;;;;;;;;;;;-142.75;100.00;78803.16;4974705;28;20307;-66
2023/03/04 06:48:05;;;;;;;;;;;;;;;-142.75;100.00;78805.13;4974631;28;19920;-66
2023/03/04 06:50:30;;;;;;;;;;;;;;;-142.75;100.00;78814.97;4974344;28;20075;-66
2023/03/04 06:52:56;;;;;;;;;;;;;;;-142.75;100.00;78801.19;4973367;28;19945;-66
2023/03/04 06:55:21;;;;;;;;;;;;;;;-142.75;100.00;78791.34;4974613;28;20359;-66
2023/03/04 06:57:46;;;;;;;;;;;;;;;-142.75;100.00;78795.28;4973133;28;19925;-66
2023/03/04 07:00:12;;;;;;;;;;;;;;;-142.75;100.00;78789.38;4974219;28;19920;-65
2023/03/04 07:02:37;;;;;;;;;;;;;;;-142.75;100.00;78783.47;4973049;28;19914;-66
2023/03/04 07:05:03;;;;;;;;;;;;;;;-142.75;100.00;78793.31;4974431;28;19992;-67
2023/03/04 07:07:28;;;;;;;;;;;;;;;-142.75;100.00;78795.28;4974294;28;19922;-66
2023/03/04 07:09:53;;;;;;;;;;;;;;;-142.75;100.00;78781.50;4974178;28;19921;-66
2023/03/04 07:12:18;;;;;;;;;;;;;;;-142.75;100.00;78791.34;4972816;28;19937;-66
2023/03/04 07:14:43;;;;;;;;;;;;;;;-142.75;100.00;78783.47;4972846;28;19918;-67
2023/03/04 07:17:09;;;;;;;;;;;;;;;-142.75;100.00;78797.25;4974154;28;19914;-66
2023/03/04 07:19:34;;;;;;;;;;;;;;;-142.75;100.00;78773.63;4973906;28;19921;-66
2023/03/04 07:21:59;;;;;;;;;;;;;;;-142.75;100.00;78755.91;4973920;28;19921;-66
2023/03/04 07:24:24;;;;;;;;;;;;;;;-142.75;100.00;78775.59;4973986;28;19922;-67
2023/03/04 07:26:50;;;;;;;;;;;;;;;-142.75;100.00;78775.59;4972806;28;19960;-66
2023/03/04 07:29:15;;;;;;;;;;;;;;;-142.75;100.00;78777.56;4973867;28;19920;-67
2023/03/04 07:31:41;;;;;;;;;;;;;;;-142.75;100.00;78775.59;4973757;28;19922;-66
2023/03/04 07:34:07;;;;;;;;;;;;;;;-142.75;100.00;78783.47;4973161;28;19953;-66
2023/03/04 07:36:33;;;;;;;;;;;;;;;-142.75;100.00;78771.66;4973567;28;19921;-67
2023/03/04 07:38:58;;;;;;;;;;;;;;;-142.75;100.00;78769.69;4973625;28;19918;-67
2023/03/04 07:41:24;;;;;;;;;;;;;;;-142.75;100.00;78793.31;4973594;28;19977;-67
2023/03/04 07:43:50;;;;;;;;;;;;;;;-142.75;100.00;78779.53;4973890;28;19968;-67
2023/03/04 07:46:16;;;;;;;;;;;;;;;-142.75;100.00;78763.78;4973806;28;19913;-67
2023/03/04 07:48:42;;;;;;;;;;;;;;;-142.75;100.00;78769.69;4973750;28;20379;-67
2023/03/04 07:51:08;;;;;;;;;;;;;;;-142.75;100.00;78753.94;4955680;28;19921;-67
2023/03/04 07:53:34;;;;;;;;;;;;;;;-142.75;100.00;78740.13;4973641;28;19918;-67
2023/03/04 07:55:59;;;;;;;;;;;;;;;-142.75;100.00;78716.50;4956099;28;19922;-66
2023/03/04 07:58:24;;;;;;;;;;;;;;;-142.75;100.00;78710.59;4973377;28;20380;-67
2023/03/04 08:00:49;;;;;;;;;;;;;;;-142.75;100.00;78708.63;4955655;28;20407;-67
2023/03/04 08:03:15;;;;;;;;;;;;;;;-142.75;100.00;78704.69;4955933;28;19914;-66
2023/03/04 08:05:40;;;;;;;;;;;;;;;-142.75;100.00;78704.69;4955973;28;20013;-67
2023/03/04 08:08:05;;;;;;;;;;;;;;;-142.75;100.00;78700.75;4973229;28;20430;-66
2023/03/04 08:10:30;;;;;;;;;;;;;;;-142.75;100.00;78714.53;4972892;28;19914;-66
2023/03/04 08:12:55;;;;;;;;;;;;;;;-142.75;100.00;78718.47;4955875;28;20343;-66
2023/03/04 08:15:21;;;;;;;;;;;;;;;-142.75;100.00;78708.63;4974900;28;20402;-66
2023/03/04 08:17:46;;;;;;;;;;;;;;;-142.75;100.00;78712.56;4971099;28;19929;-66
2023/03/04 08:20:11;;;;;;;;;;;;;;;-142.75;100.00;78688.94;4968516;28;19914;-66
2023/03/04 08:22:36;;;;;;;;;;;;;;;-142.75;100.00;78677.13;4970889;28;19913;-66
2023/03/04 08:25:02;;;;;;;;;;;;;;;-142.75;100.00;78667.25;4971473;28;19913;-67
2023/03/04 08:27:27;;;;;;;;;;;;;;;-142.75;100.00;78657.41;4953818;28;19964;-66
2023/03/04 08:29:52;;;;;;;;;;;;;;;-142.75;100.00;78677.13;4970523;28;19922;-66
2023/03/04 08:32:17;;;;;;;;;;;;;;;-142.75;100.00;78651.50;4955157;28;19920;-66
2023/03/04 08:34:43;;;;;;;;;;;;;;;-142.75;100.00;78649.53;4971006;28;19914;-66
2023/03/04 08:37:08;;;;;;;;;;;;;;;-142.75;100.00;78657.41;4969656;28;19929;-66
2023/03/04 08:39:34;;;;;;;;;;;;;;;-142.75;100.00;78647.56;4971275;28;20025;-66
2023/03/04 08:42:00;;;;;;;;;;;;;;;-142.75;100.00;78621.97;4971142;28;19948;-66
2023/03/04 08:44:25;;;;;;;;;;;;;;;-142.75;100.00;78602.28;4957934;28;20360;-66
2023/03/04 08:46:50;;;;;;;;;;;;;;;-142.75;100.00;78618.03;4971002;28;19945;-66
2023/03/04 08:49:15;;;;;;;;;;;;;;;-142.75;100.00;78568.78;4968762;28;20390;-66
2023/03/04 08:51:41;;;;;;;;;;;;;;;-142.75;100.00;78499.88;4954728;28;20375;-66
2023/03/04 08:54:06;;;;;;;;;;;;;;;-142.75;100.00;78497.91;4970756;28;20299;-67
2023/03/04 08:56:32;;;;;;;;;;;;;;;-142.75;100.00;78505.78;4970569;28;19921;-66
2023/03/04 08:58:57;;;;;;;;;;;;;;;-142.75;100.00;78521.53;4955624;28;19925;-66
2023/03/04 09:01:22;;;;;;;;;;;;;;;-142.75;100.00;78535.31;4971742;28;19921;-66
2023/03/04 09:03:48;;;;;;;;;;;;;;;-142.75;100.00;78543.19;4972424;28;19930;-66
2023/03/04 09:06:14;;;;;;;;;;;;;;;-142.75;100.00;78519.56;4972284;28;19921;-66
2023/03/04 09:08:40;;;;;;;;;;;;;;;-142.75;100.00;78476.22;4972392;28;20403;-66
2023/03/04 09:11:05;;;;;;;;;;;;;;;-142.75;100.00;78460.47;4971315;28;19914;-65
2023/03/04 09:13:30;;;;;;;;;;;;;;;-142.75;100.00;78509.72;4972113;28;19917;-66
2023/03/04 09:15:56;;;;;;;;;;;;;;;-142.75;100.00;78556.97;4971737;28;19921;-66
2023/03/04 09:18:23;;;;;;;;;;;;;;;-142.75;100.00;78560.91;4972094;28;19925;-66
2023/03/04 09:20:48;;;;;;;;;;;;;;;-142.75;100.00;78556.97;4971443;28;19914;-66
2023/03/04 09:23:13;;;;;;;;;;;;;;;-142.75;100.00;78562.88;4971653;28;20410;-66
2023/03/04 09:25:39;;;;;;;;;;;;;;;-142.75;100.00;78525.47;4973813;28;19920;-66
2023/03/04 09:28:05;;;;;;;;;;;;;;;-142.75;100.00;78488.03;4955719;28;19917;-66
2023/03/04 09:30:31;;;;;;;;;;;;;;;-142.75;100.00;78456.53;4972812;28;20384;-66
2023/03/04 09:32:56;;;;;;;;;;;;;;;-142.75;100.00;78393.50;4970989;28;20579;-66
2023/03/04 09:35:21;;;;;;;;;;;;;;;-142.75;100.00;78375.78;4970537;28;19961;-66
2023/03/04 09:37:47;;;;;;;;;;;;;;;-142.75;100.00;78383.66;4970342;28;19918;-66
2023/03/04 09:40:18;;;;;;;;;;;;;;;-142.75;100.00;78383.66;4971461;28;20008;-66
2023/03/04 09:42:46;;;;;;;;;;;;;;;-142.75;100.00;78397.44;4972360;28;19933;-65
2023/03/04 09:45:14;;;;;;;;;;;;;;;-142.75;100.00;78423.06;4970241;28;20370;-65
2023/03/04 09:47:40;;;;;;;;;;;;;;;-142.75;100.00;78446.69;4969702;28;19918;-66
2023/03/04 09:50:08;;;;;;;;;;;;;;;-142.75;100.00;78470.31;4973917;28;20284;-67
2023/03/04 09:53:00;;;;;;;;;;;;;;;-142.75;100.00;78499.88;4975241;28;19921;-67
2023/03/04 09:55:38;;;;;;;;;;;;;;;-142.75;100.00;78507.75;4975687;28;20311;-67
2023/03/04 09:58:29;;;;;;;;;;;;;;;-142.75;100.00;78495.94;4975496;28;19925;-66
2023/03/04 10:00:56;;;;;;;;;;;;;;;-142.75;100.00;78517.59;4959399;28;20000;-67
2023/03/04 10:03:29;;;;;;;;;;;;;;;-142.75;100.00;78517.59;4975432;28;19914;-67
2023/03/04 10:06:01;;;;;;;;;;;;;;;-142.75;100.00;78527.44;4975993;28;20849;-67
2023/03/04 10:08:49;;;;;;;;;;;;;;;-142.75;100.00;78535.31;4975703;28;19940;-67
2023/03/04 10:11:34;;;;;;;;;;;;;;;-142.75;100.00;78533.34;4975593;28;20288;-67
2023/03/04 10:14:18;;;;;;;;;;;;;;;-142.75;100.00;78543.19;4975211;28;19914;-67
2023/03/04 10:16:49;;;;;;;;;;;;;;;-142.75;100.00;78515.63;4975903;28;19914;-67
2023/03/04 10:19:33;;;;;;;;;;;;;;;-142.75;100.00;78503.81;4975793;28;19977;-67
2023/03/04 10:21:58;;;;;;;;;;;;;;;-142.75;100.00;78456.53;4974655;28;19918;-67
2023/03/04 10:24:27;;;;;;;;;;;;;;;-142.75;100.00;78478.19;4958213;28;20375;-67
2023/03/04 10:26:55;;;;;;;;;;;;;;;-142.75;100.00;78491.97;4976057;28;19914;-67
2023/03/04 10:29:21;;;;;;;;;;;;;;;-142.75;100.00;78495.94;4975629;28;19918;-67
2023/03/04 10:31:48;;;;;;;;;;;;;;;-142.75;100.00;78484.09;4957883;28;19956;-67
2023/03/04 10:34:13;;;;;;;;;;;;;;;-142.75;100.00;78495.94;4975521;28;19914;-67
2023/03/04 10:36:47;;;;;;;;;;;;;;;-142.75;100.00;78478.19;4975541;28;19921;-67
2023/03/04 10:39:33;;;;;;;;;;;;;;;-142.75;100.00;78468.34;4975581;28;20311;-67
2023/03/04 10:42:19;;;;;;;;;;;;;;;-142.75;100.00;78456.53;4975281;28;19960;-67
2023/03/04 10:44:54;;;;;;;;;;;;;;;-142.75;100.00;78421.09;4975122;28;19940;-67
2023/03/04 10:47:21;;;;;;;;;;;;;;;-142.75;100.00;78383.66;4975133;28;20400;-67
2023/03/04 10:49:54;;;;;;;;;;;;;;;-142.75;100.00;78365.94;4974919;28;20387;-67
2023/03/04 10:52:26;;;;;;;;;;;;;;;-142.75;100.00;78344.28;4975171;28;20383;-66
2023/03/04 10:54:53;;;;;;;;;;;;;;;-142.75;100.00;78354.13;4975032;28;19914;-67
2023/03/04 10:57:20;;;;;;;;;;;;;;;-142.75;100.00;78330.50;4974888;28;19914;-67
2023/03/04 10:59:55;;;;;;;;;;;;;;;-142.75;100.00;78322.63;4974468;28;19918;-66
2023/03/04 11:02:34;;;;;;;;;;;;;;;-142.75;100.00;78302.94;4974382;28;19957;-67
2023/03/04 11:05:08;;;;;;;;;;;;;;;-142.75;100.00;78267.47;4974836;28;19914;-67
2023/03/04 11:07:43;;;;;;;;;;;;;;;-142.75;100.00;78255.66;4974600;28;19919;-67
2023/03/04 11:10:15;;;;;;;;;;;;;;;-142.75;100.00;78255.66;4974660;28;19937;-67
2023/03/04 11:12:40;;;;;;;;;;;;;;;-142.75;100.00;78285.19;4964000;28;20323;-66
2023/03/04 11:15:17;;;;;;;;;;;;;;;-142.75;100.00;78283.22;4957246;28;19914;-67
2023/03/04 11:17:44;;;;;;;;;;;;;;;-142.75;100.00;78320.66;4974155;28;19944;-66
2023/03/04 11:20:09;;;;;;;;;;;;;;;-142.75;100.00;78322.63;4974240;28;20304;-67
2023/03/04 11:22:34;;;;;;;;;;;;;;;-142.75;100.00;78330.50;4974190;28;19924;-67
2023/03/04 11:25:10;;;;;;;;;;;;;;;-142.75;100.00;78338.38;4972987;28;19921;-67
2023/03/04 11:27:44;;;;;;;;;;;;;;;-142.75;100.00;78377.75;4974283;28;19922;-67
2023/03/04 11:30:21;;;;;;;;;;;;;;;-142.75;100.00;78381.69;4974032;28;20496;-67
2023/03/04 11:32:50;;;;;;;;;;;;;;;-142.75;100.00;78427.00;4974212;28;19913;-67
2023/03/04 11:35:28;;;;;;;;;;;;;;;-142.75;100.00;78409.28;4988770;28;19924;-67
2023/03/04 11:38:01;;;;;;;;;;;;;;;-142.75;100.00;78423.06;4974138;28;19945;-67
2023/03/04 11:40:39;;;;;;;;;;;;;;;-142.75;100.00;78427.00;4973530;28;19945;-67
2023/03/04 11:43:05;;;;;;;;;;;;;;;-142.75;100.00;78393.50;4974124;28;19944;-67
2023/03/04 11:45:38;;;;;;;;;;;;;;;-142.75;100.00;78348.22;4973750;28;20012;-66
2023/03/04 11:48:20;;;;;;;;;;;;;;;-142.75;100.00;78285.19;4973871;28;19924;-67
2023/03/04 11:51:12;;;;;;;;;;;;;;;-142.75;100.00;78194.63;4966416;28;19914;-67
2023/03/04 11:53:49;;;;;;;;;;;;;;;-142.75;100.00;78058.72;4955113;28;19921;-67
2023/03/04 11:56:25;;;;;;;;;;;;;;;-142.75;100.00;78172.94;4972642;28;19918;-67
2023/03/04 11:58:53;;;;;;;;;;;;;;;-142.75;100.00;78206.44;4972611;28;20060;-68
2023/03/04 12:01:18;;;;;;;;;;;;;;;-142.75;100.00;78235.97;4955452;28;19964;-67
2023/03/04 12:03:49;;;;;;;;;;;;;;;-142.75;100.00;78237.94;4972036;28;20428;-67
2023/03/04 12:06:27;;;;;;;;;;;;;;;-142.75;100.00;78302.94;4972560;28;20088;-67
2023/03/04 12:08:52;;;;;;;;;;;;;;;-142.75;100.00;78318.69;4972408;28;20291;-67
2023/03/04 12:11:17;;;;;;;;;;;;;;;-142.75;100.00;78338.38;4971981;28;19921;-68
2023/03/04 12:14:01;;;;;;;;;;;;;;;-142.75;100.00;78340.34;4971418;28;19917;-67
2023/03/04 12:16:26;;;;;;;;;;;;;;;-142.75;100.00;78338.38;4955292;28;19965;-67